PORT of VAXHOLM

Land: Aland Islands Land: Aland Islands (AX)
Latitude / Longitude: 59.4009° / 18.35265° Toon op kaart Toon op kaart
Lokale Tijd:  UTC +2
UN/LOCODE: SEVXH
Schepen momenteel in haven: 5

Recente Aankomst- en Vertrektijden


Scheepsnaam
Aankomst (UTC)
Aankomst (LT)
Vertrek (UTC)
Vertrek (LT)
Vessel Type: Passagiersboot  NINA 2014-09-21 02:08:00 2014-09-21 04:08:00
Vessel Type: Passagiersboot  NINA 2014-09-21 01:25:00 2014-09-21 03:25:00 2014-09-21 02:02:00 2014-09-21 04:02:00
Vessel Type: Passagiersboot  NINA 2014-09-21 00:10:00 2014-09-21 02:10:00 2014-09-21 01:18:00 2014-09-21 03:18:00
Vessel Type: Passagiersboot  NINA 2014-09-20 23:11:00 2014-09-21 01:11:00 2014-09-21 00:02:00 2014-09-21 02:02:00
Vessel Type: Passagiersboot  NINA 2014-09-20 22:10:00 2014-09-21 00:10:00 2014-09-20 23:03:00 2014-09-21 01:03:00
Vessel Type: Passagiersboot  NINA 2014-09-20 21:14:00 2014-09-20 23:14:00 2014-09-20 21:33:00 2014-09-20 23:33:00
Vessel Type: Passagiersboot  EVERT TAUBE 2014-09-20 20:53:00 2014-09-20 22:53:00 2014-09-20 21:14:00 2014-09-20 23:14:00
Vessel Type: Passagiersboot  NINA 2014-09-20 20:14:00 2014-09-20 22:14:00 2014-09-20 20:34:00 2014-09-20 22:34:00
Vessel Type: Passagiersboot  NINA 2014-09-20 19:15:00 2014-09-20 21:15:00 2014-09-20 20:04:00 2014-09-20 22:04:00
Vessel Type: Passagiersboot  NINA 2014-09-20 18:45:00 2014-09-20 20:45:00 2014-09-20 19:03:00 2014-09-20 21:03:00

Verwachte aankomsten


Scheepsnaam
Scheduled Arrival (UTC)
Geplande Aankomst (lokale tijd)
Geschatte Aankomsttijd (UTC)
Geschatte Aankomsttijd (Lokaal)
Geen gegevens gevonden

Wind Forecast


    
Tijd (UTC)
Snelheid
Direction
Temperature
2014-09-21 00:00:00 5 knots 234° 14°C
2014-09-21 03:00:00 3 knots 261° 13°C
2014-09-21 06:00:00 2 knots 271° 13°C
2014-09-21 09:00:00 2 knots 246° 15°C
2014-09-21 12:00:00 3 knots 232° 17°C
2014-09-21 15:00:00 3 knots 268° 17°C
2014-09-21 18:00:00 8 knots 16°C
2014-09-21 21:00:00 12 knots 358° 13°C
2014-09-22 00:00:00 16 knots 356° 12°C
2014-09-22 03:00:00 17 knots 354° 12°C
2014-09-22 06:00:00 19 knots 12°C
2014-09-22 09:00:00 21 knots 12°C
2014-09-22 12:00:00 20 knots 11°C
2014-09-22 15:00:00 19 knots 359° 11°C
2014-09-22 18:00:00 16 knots 354° 10°C
2014-09-22 21:00:00 12 knots 340° 9°C
2014-09-23 00:00:00 10 knots 322° 9°C